sensor_id;sensor_type;location;lat;lon;timestamp;temperature;humidity
23719;DHT22;43322;52.230;5.702;2023-12-14T00:02:16;7.20;99.90
23719;DHT22;43322;52.230;5.702;2023-12-14T00:04:43;6.40;99.90
23719;DHT22;43322;52.230;5.702;2023-12-14T00:07:10;6.40;99.90
23719;DHT22;43322;52.230;5.702;2023-12-14T00:09:40;6.80;99.90
23719;DHT22;43322;52.230;5.702;2023-12-14T00:12:06;6.50;99.90
23719;DHT22;43322;52.230;5.702;2023-12-14T00:14:33;6.70;99.90
23719;DHT22;43322;52.230;5.702;2023-12-14T00:17:01;6.30;99.90
23719;DHT22;43322;52.230;5.702;2023-12-14T00:19:28;6.30;99.90
23719;DHT22;43322;52.230;5.702;2023-12-14T00:21:55;6.30;99.90
23719;DHT22;43322;52.230;5.702;2023-12-14T00:24:22;6.10;99.90
23719;DHT22;43322;52.230;5.702;2023-12-14T00:26:49;7.20;99.90
23719;DHT22;43322;52.230;5.702;2023-12-14T00:29:16;6.00;99.90
23719;DHT22;43322;52.230;5.702;2023-12-14T00:31:42;6.20;99.90
23719;DHT22;43322;52.230;5.702;2023-12-14T00:34:11;7.10;99.90
23719;DHT22;43322;52.230;5.702;2023-12-14T00:36:38;6.10;99.90
23719;DHT22;43322;52.230;5.702;2023-12-14T00:39:04;6.20;99.90
23719;DHT22;43322;52.230;5.702;2023-12-14T00:41:31;6.40;99.90
23719;DHT22;43322;52.230;5.702;2023-12-14T00:43:58;6.20;99.90
23719;DHT22;43322;52.230;5.702;2023-12-14T00:46:25;6.70;99.90
23719;DHT22;43322;52.230;5.702;2023-12-14T00:48:52;6.20;99.90
23719;DHT22;43322;52.230;5.702;2023-12-14T00:51:20;6.20;99.90
23719;DHT22;43322;52.230;5.702;2023-12-14T00:53:47;6.10;99.90
23719;DHT22;43322;52.230;5.702;2023-12-14T00:56:13;6.30;99.90
23719;DHT22;43322;52.230;5.702;2023-12-14T00:58:40;6.30;99.90
23719;DHT22;43322;52.230;5.702;2023-12-14T01:01:07;6.30;99.90
23719;DHT22;43322;52.230;5.702;2023-12-14T01:03:34;6.10;99.90
23719;DHT22;43322;52.230;5.702;2023-12-14T01:06:01;6.10;99.90
23719;DHT22;43322;52.230;5.702;2023-12-14T01:08:29;6.10;99.90
23719;DHT22;43322;52.230;5.702;2023-12-14T01:10:56;6.10;99.90
23719;DHT22;43322;52.230;5.702;2023-12-14T01:13:23;6.10;99.90
23719;DHT22;43322;52.230;5.702;2023-12-14T01:15:50;6.10;99.90
23719;DHT22;43322;52.230;5.702;2023-12-14T01:18:17;6.10;99.90
23719;DHT22;43322;52.230;5.702;2023-12-14T01:20:43;6.20;99.90
23719;DHT22;43322;52.230;5.702;2023-12-14T01:23:10;6.60;99.90
23719;DHT22;43322;52.230;5.702;2023-12-14T01:25:38;6.10;99.90
23719;DHT22;43322;52.230;5.702;2023-12-14T01:28:05;6.10;99.90
23719;DHT22;43322;52.230;5.702;2023-12-14T01:30:32;6.20;99.90
23719;DHT22;43322;52.230;5.702;2023-12-14T01:32:59;6.60;99.90
23719;DHT22;43322;52.230;5.702;2023-12-14T01:35:26;7.30;99.90
23719;DHT22;43322;52.230;5.702;2023-12-14T01:37:55;6.00;99.90
23719;DHT22;43322;52.230;5.702;2023-12-14T01:40:22;6.30;99.90
23719;DHT22;43322;52.230;5.702;2023-12-14T01:49:34;6.10;99.90
23719;DHT22;43322;52.230;5.702;2023-12-14T01:52:01;6.10;99.90
23719;DHT22;43322;52.230;5.702;2023-12-14T01:54:28;6.60;99.90
23719;DHT22;43322;52.230;5.702;2023-12-14T01:56:57;6.20;99.90
23719;DHT22;43322;52.230;5.702;2023-12-14T01:59:24;6.20;99.90
23719;DHT22;43322;52.230;5.702;2023-12-14T02:01:53;6.20;99.90
23719;DHT22;43322;52.230;5.702;2023-12-14T02:04:22;6.10;99.90
23719;DHT22;43322;52.230;5.702;2023-12-14T02:06:50;6.00;99.90
23719;DHT22;43322;52.230;5.702;2023-12-14T02:09:17;6.00;99.90
23719;DHT22;43322;52.230;5.702;2023-12-14T02:11:44;6.20;99.90
23719;DHT22;43322;52.230;5.702;2023-12-14T02:14:12;6.10;99.90
23719;DHT22;43322;52.230;5.702;2023-12-14T02:16:39;6.50;99.90
23719;DHT22;43322;52.230;5.702;2023-12-14T02:19:06;6.10;99.90
23719;DHT22;43322;52.230;5.702;2023-12-14T02:21:33;6.10;99.90
23719;DHT22;43322;52.230;5.702;2023-12-14T02:24:01;6.30;99.90
23719;DHT22;43322;52.230;5.702;2023-12-14T02:26:28;6.10;99.90
23719;DHT22;43322;52.230;5.702;2023-12-14T02:28:55;6.30;99.90
23719;DHT22;43322;52.230;5.702;2023-12-14T03:42:08;6.00;99.90
23719;DHT22;43322;52.230;5.702;2023-12-14T03:44:34;6.00;99.90
23719;DHT22;43322;52.230;5.702;2023-12-14T03:47:01;6.00;99.90
23719;DHT22;43322;52.230;5.702;2023-12-14T03:49:28;6.00;99.90
23719;DHT22;43322;52.230;5.702;2023-12-14T03:51:55;6.00;99.90
23719;DHT22;43322;52.230;5.702;2023-12-14T03:54:22;6.90;99.90
23719;DHT22;43322;52.230;5.702;2023-12-14T03:56:49;6.10;99.90
23719;DHT22;43322;52.230;5.702;2023-12-14T03:59:17;6.10;99.90
23719;DHT22;43322;52.230;5.702;2023-12-14T04:01:44;6.00;99.90
23719;DHT22;43322;52.230;5.702;2023-12-14T04:04:11;6.00;99.90
23719;DHT22;43322;52.230;5.702;2023-12-14T04:06:37;6.20;99.90
23719;DHT22;43322;52.230;5.702;2023-12-14T04:09:05;6.00;99.90
23719;DHT22;43322;52.230;5.702;2023-12-14T04:11:31;7.10;99.90
23719;DHT22;43322;52.230;5.702;2023-12-14T04:13:58;6.60;99.90
23719;DHT22;43322;52.230;5.702;2023-12-14T04:16:27;6.00;99.90
23719;DHT22;43322;52.230;5.702;2023-12-14T04:18:53;6.20;99.90
23719;DHT22;43322;52.230;5.702;2023-12-14T04:21:21;6.70;99.90
23719;DHT22;43322;52.230;5.702;2023-12-14T04:23:48;6.30;99.90
23719;DHT22;43322;52.230;5.702;2023-12-14T04:26:15;5.80;99.90
23719;DHT22;43322;52.230;5.702;2023-12-14T04:28:42;5.80;99.90
23719;DHT22;43322;52.230;5.702;2023-12-14T04:31:11;6.20;99.90
23719;DHT22;43322;52.230;5.702;2023-12-14T04:33:39;6.50;99.90
23719;DHT22;43322;52.230;5.702;2023-12-14T04:36:07;7.00;99.90
23719;DHT22;43322;52.230;5.702;2023-12-14T04:38:33;5.80;99.90
23719;DHT22;43322;52.230;5.702;2023-12-14T04:41:00;5.80;99.90
23719;DHT22;43322;52.230;5.702;2023-12-14T04:43:27;5.80;99.90
23719;DHT22;43322;52.230;5.702;2023-12-14T04:45:56;5.80;99.90
23719;DHT22;43322;52.230;5.702;2023-12-14T04:48:22;5.80;99.90
23719;DHT22;43322;52.230;5.702;2023-12-14T04:50:51;5.80;99.90
23719;DHT22;43322;52.230;5.702;2023-12-14T04:53:18;6.10;99.90
23719;DHT22;43322;52.230;5.702;2023-12-14T04:55:45;5.80;99.90
23719;DHT22;43322;52.230;5.702;2023-12-14T04:58:11;5.80;99.90
23719;DHT22;43322;52.230;5.702;2023-12-14T05:00:38;5.80;99.90
23719;DHT22;43322;52.230;5.702;2023-12-14T05:03:05;5.90;99.90
23719;DHT22;43322;52.230;5.702;2023-12-14T05:05:32;6.50;99.90
23719;DHT22;43322;52.230;5.702;2023-12-14T05:08:00;5.70;99.90
23719;DHT22;43322;52.230;5.702;2023-12-14T05:10:27;6.20;99.90
23719;DHT22;43322;52.230;5.702;2023-12-14T05:12:54;5.90;99.90
23719;DHT22;43322;52.230;5.702;2023-12-14T05:15:21;6.40;99.90
23719;DHT22;43322;52.230;5.702;2023-12-14T05:17:47;5.80;99.90
23719;DHT22;43322;52.230;5.702;2023-12-14T05:20:14;5.80;99.90
23719;DHT22;43322;52.230;5.702;2023-12-14T05:22:41;5.70;99.90
23719;DHT22;43322;52.230;5.702;2023-12-14T05:25:10;5.60;99.90
23719;DHT22;43322;52.230;5.702;2023-12-14T05:27:37;5.90;99.90
23719;DHT22;43322;52.230;5.702;2023-12-14T05:30:05;6.10;99.90
23719;DHT22;43322;52.230;5.702;2023-12-14T05:32:32;5.60;99.90
23719;DHT22;43322;52.230;5.702;2023-12-14T05:34:59;5.60;99.90
23719;DHT22;43322;52.230;5.702;2023-12-14T05:37:26;5.50;99.90
23719;DHT22;43322;52.230;5.702;2023-12-14T05:39:52;5.50;99.90
23719;DHT22;43322;52.230;5.702;2023-12-14T05:42:21;5.50;99.90
23719;DHT22;43322;52.230;5.702;2023-12-14T05:44:48;6.30;99.90
23719;DHT22;43322;52.230;5.702;2023-12-14T05:47:15;6.20;99.90
23719;DHT22;43322;52.230;5.702;2023-12-14T05:49:42;5.60;99.90
23719;DHT22;43322;52.230;5.702;2023-12-14T05:52:09;5.90;99.90
23719;DHT22;43322;52.230;5.702;2023-12-14T05:54:36;5.60;99.90
23719;DHT22;43322;52.230;5.702;2023-12-14T05:57:03;5.50;99.90
23719;DHT22;43322;52.230;5.702;2023-12-14T05:59:31;5.50;99.90
23719;DHT22;43322;52.230;5.702;2023-12-14T06:01:58;5.70;99.90
23719;DHT22;43322;52.230;5.702;2023-12-14T06:04:26;5.40;99.90
23719;DHT22;43322;52.230;5.702;2023-12-14T06:06:53;5.50;99.90
23719;DHT22;43322;52.230;5.702;2023-12-14T06:09:20;5.40;99.90
23719;DHT22;43322;52.230;5.702;2023-12-14T06:11:51;5.40;99.90
23719;DHT22;43322;52.230;5.702;2023-12-14T06:14:17;5.40;99.90
23719;DHT22;43322;52.230;5.702;2023-12-14T06:16:46;5.90;99.90
23719;DHT22;43322;52.230;5.702;2023-12-14T06:19:13;5.80;99.90
23719;DHT22;43322;52.230;5.702;2023-12-14T06:21:40;6.60;99.90
23719;DHT22;43322;52.230;5.702;2023-12-14T06:24:07;5.40;99.90
23719;DHT22;43322;52.230;5.702;2023-12-14T06:26:34;5.40;99.90
23719;DHT22;43322;52.230;5.702;2023-12-14T06:29:01;5.70;99.90
23719;DHT22;43322;52.230;5.702;2023-12-14T06:31:27;5.40;99.90
23719;DHT22;43322;52.230;5.702;2023-12-14T06:33:56;5.60;99.90
23719;DHT22;43322;52.230;5.702;2023-12-14T06:36:23;6.00;99.90
23719;DHT22;43322;52.230;5.702;2023-12-14T06:38:52;5.80;99.90
23719;DHT22;43322;52.230;5.702;2023-12-14T06:41:19;6.00;99.90
23719;DHT22;43322;52.230;5.702;2023-12-14T06:43:46;5.50;99.90
23719;DHT22;43322;52.230;5.702;2023-12-14T06:46:13;5.50;99.90
23719;DHT22;43322;52.230;5.702;2023-12-14T06:48:40;5.50;99.90
23719;DHT22;43322;52.230;5.702;2023-12-14T06:51:07;5.30;99.90
23719;DHT22;43322;52.230;5.702;2023-12-14T06:53:35;5.30;99.90
23719;DHT22;43322;52.230;5.702;2023-12-14T06:56:03;5.50;99.90
23719;DHT22;43322;52.230;5.702;2023-12-14T06:58:30;5.20;99.90
23719;DHT22;43322;52.230;5.702;2023-12-14T07:00:57;5.90;99.90
23719;DHT22;43322;52.230;5.702;2023-12-14T07:03:24;5.50;99.90
23719;DHT22;43322;52.230;5.702;2023-12-14T07:05:50;5.10;99.90
23719;DHT22;43322;52.230;5.702;2023-12-14T07:08:19;5.90;99.90
23719;DHT22;43322;52.230;5.702;2023-12-14T07:10:45;6.30;99.90
23719;DHT22;43322;52.230;5.702;2023-12-14T07:13:12;5.60;99.90
23719;DHT22;43322;52.230;5.702;2023-12-14T07:15:39;5.20;99.90
23719;DHT22;43322;52.230;5.702;2023-12-14T07:18:06;5.10;99.90
23719;DHT22;43322;52.230;5.702;2023-12-14T07:20:33;5.00;99.90
23719;DHT22;43322;52.230;5.702;2023-12-14T07:23:00;5.10;99.90
23719;DHT22;43322;52.230;5.702;2023-12-14T07:25:28;5.80;99.90
23719;DHT22;43322;52.230;5.702;2023-12-14T07:27:55;5.10;99.90
23719;DHT22;43322;52.230;5.702;2023-12-14T07:30:22;6.00;99.90
23719;DHT22;43322;52.230;5.702;2023-12-14T07:32:49;5.10;99.90
23719;DHT22;43322;52.230;5.702;2023-12-14T07:35:16;5.20;99.90
23719;DHT22;43322;52.230;5.702;2023-12-14T07:37:43;5.10;99.90
23719;DHT22;43322;52.230;5.702;2023-12-14T07:40:10;5.10;99.90
23719;DHT22;43322;52.230;5.702;2023-12-14T07:42:38;5.10;99.90
23719;DHT22;43322;52.230;5.702;2023-12-14T07:45:06;5.10;99.90
23719;DHT22;43322;52.230;5.702;2023-12-14T07:47:34;5.10;99.90
23719;DHT22;43322;52.230;5.702;2023-12-14T07:50:01;5.10;99.90
23719;DHT22;43322;52.230;5.702;2023-12-14T07:52:27;5.00;99.90
23719;DHT22;43322;52.230;5.702;2023-12-14T07:54:54;5.00;99.90
23719;DHT22;43322;52.230;5.702;2023-12-14T07:57:21;5.10;99.90
23719;DHT22;43322;52.230;5.702;2023-12-14T07:59:51;6.30;99.90
23719;DHT22;43322;52.230;5.702;2023-12-14T08:02:18;5.00;99.90
23719;DHT22;43322;52.230;5.702;2023-12-14T08:04:45;5.50;99.90
23719;DHT22;43322;52.230;5.702;2023-12-14T08:07:11;5.70;99.90
23719;DHT22;43322;52.230;5.702;2023-12-14T08:09:38;5.30;99.90
23719;DHT22;43322;52.230;5.702;2023-12-14T08:12:05;5.80;99.90
23719;DHT22;43322;52.230;5.702;2023-12-14T08:14:33;5.00;99.90
23719;DHT22;43322;52.230;5.702;2023-12-14T08:17:01;4.80;99.90
23719;DHT22;43322;52.230;5.702;2023-12-14T08:19:29;4.90;99.90
23719;DHT22;43322;52.230;5.702;2023-12-14T08:21:55;5.00;99.90
23719;DHT22;43322;52.230;5.702;2023-12-14T08:24:22;5.10;99.90
23719;DHT22;43322;52.230;5.702;2023-12-14T08:26:49;5.70;99.90
23719;DHT22;43322;52.230;5.702;2023-12-14T08:29:16;6.00;99.90
23719;DHT22;43322;52.230;5.702;2023-12-14T08:31:43;5.10;99.90
23719;DHT22;43322;52.230;5.702;2023-12-14T08:34:11;5.10;99.90
23719;DHT22;43322;52.230;5.702;2023-12-14T08:36:38;5.10;99.90
23719;DHT22;43322;52.230;5.702;2023-12-14T08:39:04;5.00;99.90
23719;DHT22;43322;52.230;5.702;2023-12-14T08:41:32;5.10;99.90
23719;DHT22;43322;52.230;5.702;2023-12-14T08:43:59;5.10;99.90
23719;DHT22;43322;52.230;5.702;2023-12-14T08:46:25;5.00;99.90
23719;DHT22;43322;52.230;5.702;2023-12-14T08:48:52;5.50;99.90
23719;DHT22;43322;52.230;5.702;2023-12-14T08:51:20;5.10;99.90
23719;DHT22;43322;52.230;5.702;2023-12-14T08:53:50;5.10;99.90
23719;DHT22;43322;52.230;5.702;2023-12-14T08:56:16;5.10;99.90
23719;DHT22;43322;52.230;5.702;2023-12-14T08:58:43;5.10;99.90
23719;DHT22;43322;52.230;5.702;2023-12-14T09:01:10;5.20;99.90
23719;DHT22;43322;52.230;5.702;2023-12-14T09:03:37;5.30;99.90
23719;DHT22;43322;52.230;5.702;2023-12-14T09:06:04;5.90;99.90
23719;DHT22;43322;52.230;5.702;2023-12-14T09:08:33;5.10;99.90
23719;DHT22;43322;52.230;5.702;2023-12-14T09:11:00;5.40;99.90
23719;DHT22;43322;52.230;5.702;2023-12-14T09:13:26;5.10;99.90
23719;DHT22;43322;52.230;5.702;2023-12-14T09:15:53;5.50;99.90
23719;DHT22;43322;52.230;5.702;2023-12-14T09:18:20;6.10;99.90
23719;DHT22;43322;52.230;5.702;2023-12-14T09:20:48;5.50;99.90
23719;DHT22;43322;52.230;5.702;2023-12-14T09:23:16;5.20;99.90
23719;DHT22;43322;52.230;5.702;2023-12-14T09:25:45;5.40;99.90
23719;DHT22;43322;52.230;5.702;2023-12-14T09:28:12;5.10;99.90
23719;DHT22;43322;52.230;5.702;2023-12-14T09:30:39;5.10;99.90
23719;DHT22;43322;52.230;5.702;2023-12-14T09:33:06;5.30;99.90
23719;DHT22;43322;52.230;5.702;2023-12-14T09:35:34;5.40;99.90
23719;DHT22;43322;52.230;5.702;2023-12-14T09:38:02;5.20;99.90
23719;DHT22;43322;52.230;5.702;2023-12-14T09:40:29;5.20;99.90
23719;DHT22;43322;52.230;5.702;2023-12-14T09:42:57;5.20;99.90
23719;DHT22;43322;52.230;5.702;2023-12-14T09:45:28;5.20;99.90
23719;DHT22;43322;52.230;5.702;2023-12-14T09:47:56;6.00;99.90
23719;DHT22;43322;52.230;5.702;2023-12-14T09:50:23;5.30;99.90
23719;DHT22;43322;52.230;5.702;2023-12-14T09:52:50;6.70;99.90
23719;DHT22;43322;52.230;5.702;2023-12-14T09:55:17;5.20;99.90
23719;DHT22;43322;52.230;5.702;2023-12-14T09:57:44;5.40;99.90
23719;DHT22;43322;52.230;5.702;2023-12-14T10:00:13;5.20;99.90
23719;DHT22;43322;52.230;5.702;2023-12-14T10:03:18;5.20;99.90
23719;DHT22;43322;52.230;5.702;2023-12-14T10:05:45;5.20;99.90
23719;DHT22;43322;52.230;5.702;2023-12-14T10:08:12;5.20;99.90
23719;DHT22;43322;52.230;5.702;2023-12-14T10:10:39;5.30;99.90
23719;DHT22;43322;52.230;5.702;2023-12-14T10:13:06;5.30;99.90
23719;DHT22;43322;52.230;5.702;2023-12-14T10:15:42;5.90;99.90
23719;DHT22;43322;52.230;5.702;2023-12-14T10:18:09;5.60;99.90
23719;DHT22;43322;52.230;5.702;2023-12-14T10:20:36;5.30;99.90
23719;DHT22;43322;52.230;5.702;2023-12-14T10:23:05;5.40;99.90
23719;DHT22;43322;52.230;5.702;2023-12-14T10:25:32;5.40;99.90
23719;DHT22;43322;52.230;5.702;2023-12-14T10:27:59;5.50;99.90
23719;DHT22;43322;52.230;5.702;2023-12-14T10:30:28;5.50;99.90
23719;DHT22;43322;52.230;5.702;2023-12-14T10:32:57;5.50;99.90
23719;DHT22;43322;52.230;5.702;2023-12-14T10:35:24;5.40;99.90
23719;DHT22;43322;52.230;5.702;2023-12-14T10:37:51;5.90;99.90
23719;DHT22;43322;52.230;5.702;2023-12-14T10:40:19;5.50;99.90
23719;DHT22;43322;52.230;5.702;2023-12-14T10:42:47;5.30;99.90
23719;DHT22;43322;52.230;5.702;2023-12-14T10:45:16;5.90;99.90
23719;DHT22;43322;52.230;5.702;2023-12-14T10:47:46;5.50;99.90
23719;DHT22;43322;52.230;5.702;2023-12-14T10:50:14;5.40;99.90
23719;DHT22;43322;52.230;5.702;2023-12-14T10:52:42;5.50;99.90
23719;DHT22;43322;52.230;5.702;2023-12-14T10:55:13;5.50;99.90
23719;DHT22;43322;52.230;5.702;2023-12-14T10:57:42;5.40;99.90
23719;DHT22;43322;52.230;5.702;2023-12-14T11:00:09;6.40;99.90
23719;DHT22;43322;52.230;5.702;2023-12-14T11:02:40;5.50;99.90
23719;DHT22;43322;52.230;5.702;2023-12-14T11:05:12;6.10;99.90
23719;DHT22;43322;52.230;5.702;2023-12-14T11:07:50;5.80;99.90
23719;DHT22;43322;52.230;5.702;2023-12-14T11:10:21;5.70;99.90
23719;DHT22;43322;52.230;5.702;2023-12-14T11:12:56;5.50;99.90
23719;DHT22;43322;52.230;5.702;2023-12-14T11:15:23;5.70;99.90
23719;DHT22;43322;52.230;5.702;2023-12-14T11:18:19;5.70;99.90
23719;DHT22;43322;52.230;5.702;2023-12-14T11:20:49;5.80;99.90
23719;DHT22;43322;52.230;5.702;2023-12-14T11:23:30;5.90;99.90
23719;DHT22;43322;52.230;5.702;2023-12-14T11:25:59;6.00;99.90
23719;DHT22;43322;52.230;5.702;2023-12-14T11:28:28;6.10;99.90
23719;DHT22;43322;52.230;5.702;2023-12-14T11:30:55;6.00;99.90
23719;DHT22;43322;52.230;5.702;2023-12-14T11:33:22;6.10;99.90
23719;DHT22;43322;52.230;5.702;2023-12-14T11:35:50;6.10;99.90
23719;DHT22;43322;52.230;5.702;2023-12-14T11:38:19;6.10;99.90
23719;DHT22;43322;52.230;5.702;2023-12-14T11:40:47;6.10;99.90
23719;DHT22;43322;52.230;5.702;2023-12-14T11:43:14;6.10;99.90
23719;DHT22;43322;52.230;5.702;2023-12-14T11:45:41;6.20;99.90
23719;DHT22;43322;52.230;5.702;2023-12-14T11:48:11;6.20;99.90
23719;DHT22;43322;52.230;5.702;2023-12-14T11:50:39;6.30;99.90
23719;DHT22;43322;52.230;5.702;2023-12-14T11:53:07;6.40;99.90
23719;DHT22;43322;52.230;5.702;2023-12-14T11:55:36;6.40;99.90
23719;DHT22;43322;52.230;5.702;2023-12-14T11:58:03;6.50;99.90
23719;DHT22;43322;52.230;5.702;2023-12-14T12:00:31;6.90;99.90
23719;DHT22;43322;52.230;5.702;2023-12-14T12:03:09;6.90;99.90
23719;DHT22;43322;52.230;5.702;2023-12-14T12:05:37;6.40;99.90
23719;DHT22;43322;52.230;5.702;2023-12-14T12:08:04;6.50;99.90
23719;DHT22;43322;52.230;5.702;2023-12-14T12:10:31;6.60;99.90
23719;DHT22;43322;52.230;5.702;2023-12-14T12:13:03;6.60;99.90
23719;DHT22;43322;52.230;5.702;2023-12-14T12:15:31;6.60;99.90
23719;DHT22;43322;52.230;5.702;2023-12-14T12:18:02;6.70;99.90
23719;DHT22;43322;52.230;5.702;2023-12-14T12:20:29;6.80;99.90
23719;DHT22;43322;52.230;5.702;2023-12-14T12:22:57;6.80;99.90
23719;DHT22;43322;52.230;5.702;2023-12-14T12:25:24;6.60;99.90
23719;DHT22;43322;52.230;5.702;2023-12-14T12:27:53;6.70;99.90
23719;DHT22;43322;52.230;5.702;2023-12-14T12:30:21;6.70;99.90
23719;DHT22;43322;52.230;5.702;2023-12-14T12:32:48;6.60;99.90
23719;DHT22;43322;52.230;5.702;2023-12-14T12:35:16;6.60;99.90
23719;DHT22;43322;52.230;5.702;2023-12-14T12:37:43;6.50;99.90
23719;DHT22;43322;52.230;5.702;2023-12-14T12:40:10;6.50;99.90
23719;DHT22;43322;52.230;5.702;2023-12-14T12:42:37;6.50;99.90
23719;DHT22;43322;52.230;5.702;2023-12-14T12:45:05;6.40;99.90
23719;DHT22;43322;52.230;5.702;2023-12-14T12:47:33;6.40;99.90
23719;DHT22;43322;52.230;5.702;2023-12-14T12:50:00;6.30;99.90
23719;DHT22;43322;52.230;5.702;2023-12-14T12:52:28;6.40;99.90
23719;DHT22;43322;52.230;5.702;2023-12-14T12:54:55;6.10;99.90
23719;DHT22;43322;52.230;5.702;2023-12-14T12:57:22;6.20;99.90
23719;DHT22;43322;52.230;5.702;2023-12-14T12:59:48;6.60;99.90
23719;DHT22;43322;52.230;5.702;2023-12-14T13:02:15;6.80;99.90
23719;DHT22;43322;52.230;5.702;2023-12-14T13:04:44;6.20;99.90
23719;DHT22;43322;52.230;5.702;2023-12-14T13:07:13;6.30;99.90
23719;DHT22;43322;52.230;5.702;2023-12-14T13:09:40;6.20;99.90
23719;DHT22;43322;52.230;5.702;2023-12-14T13:12:07;6.20;99.90
23719;DHT22;43322;52.230;5.702;2023-12-14T13:14:35;6.20;99.90
23719;DHT22;43322;52.230;5.702;2023-12-14T13:17:02;6.00;99.90
23719;DHT22;43322;52.230;5.702;2023-12-14T13:19:29;5.90;99.90
23719;DHT22;43322;52.230;5.702;2023-12-14T13:21:58;6.00;99.90
23719;DHT22;43322;52.230;5.702;2023-12-14T13:24:25;6.70;99.90
23719;DHT22;43322;52.230;5.702;2023-12-14T13:26:52;6.00;99.90
23719;DHT22;43322;52.230;5.702;2023-12-14T13:29:18;6.00;99.90
23719;DHT22;43322;52.230;5.702;2023-12-14T13:31:46;5.90;99.90
23719;DHT22;43322;52.230;5.702;2023-12-14T13:34:13;6.00;99.90
23719;DHT22;43322;52.230;5.702;2023-12-14T13:36:39;6.30;99.90
23719;DHT22;43322;52.230;5.702;2023-12-14T13:39:08;6.00;99.90
23719;DHT22;43322;52.230;5.702;2023-12-14T13:41:35;6.00;99.90
23719;DHT22;43322;52.230;5.702;2023-12-14T13:44:01;6.10;99.90
23719;DHT22;43322;52.230;5.702;2023-12-14T13:46:29;5.90;99.90
23719;DHT22;43322;52.230;5.702;2023-12-14T13:48:56;6.20;99.90
23719;DHT22;43322;52.230;5.702;2023-12-14T13:51:23;5.90;99.90
23719;DHT22;43322;52.230;5.702;2023-12-14T13:53:49;5.90;99.90
23719;DHT22;43322;52.230;5.702;2023-12-14T13:56:18;5.90;99.90
23719;DHT22;43322;52.230;5.702;2023-12-14T13:58:44;7.30;99.90
23719;DHT22;43322;52.230;5.702;2023-12-14T14:01:11;6.10;99.90
23719;DHT22;43322;52.230;5.702;2023-12-14T14:03:40;6.10;99.90
23719;DHT22;43322;52.230;5.702;2023-12-14T14:06:07;6.20;99.90
23719;DHT22;43322;52.230;5.702;2023-12-14T14:08:35;6.20;99.90
23719;DHT22;43322;52.230;5.702;2023-12-14T14:11:02;6.20;99.90
23719;DHT22;43322;52.230;5.702;2023-12-14T14:13:30;6.20;99.90
23719;DHT22;43322;52.230;5.702;2023-12-14T14:15:57;6.30;99.90
23719;DHT22;43322;52.230;5.702;2023-12-14T14:18:24;6.20;99.90
23719;DHT22;43322;52.230;5.702;2023-12-14T14:20:51;6.20;99.90
23719;DHT22;43322;52.230;5.702;2023-12-14T14:23:18;6.30;99.90
23719;DHT22;43322;52.230;5.702;2023-12-14T14:25:45;6.30;99.90
23719;DHT22;43322;52.230;5.702;2023-12-14T14:28:12;6.30;99.90
23719;DHT22;43322;52.230;5.702;2023-12-14T14:30:40;6.30;99.90
23719;DHT22;43322;52.230;5.702;2023-12-14T14:33:07;6.30;99.90
23719;DHT22;43322;52.230;5.702;2023-12-14T14:35:34;6.20;99.90
23719;DHT22;43322;52.230;5.702;2023-12-14T14:38:02;6.40;99.90
23719;DHT22;43322;52.230;5.702;2023-12-14T14:40:29;6.80;99.90
23719;DHT22;43322;52.230;5.702;2023-12-14T14:42:56;6.00;99.90
23719;DHT22;43322;52.230;5.702;2023-12-14T14:45:24;6.50;99.90
23719;DHT22;43322;52.230;5.702;2023-12-14T14:47:52;6.00;99.90
23719;DHT22;43322;52.230;5.702;2023-12-14T14:50:19;5.90;99.90
23719;DHT22;43322;52.230;5.702;2023-12-14T14:52:46;5.80;99.90
23719;DHT22;43322;52.230;5.702;2023-12-14T14:55:13;5.70;99.90
23719;DHT22;43322;52.230;5.702;2023-12-14T14:57:40;5.60;99.90
23719;DHT22;43322;52.230;5.702;2023-12-14T15:00:08;6.80;99.90
23719;DHT22;43322;52.230;5.702;2023-12-14T15:02:35;5.60;99.90
23719;DHT22;43322;52.230;5.702;2023-12-14T15:05:03;5.70;99.90
23719;DHT22;43322;52.230;5.702;2023-12-14T15:07:32;5.60;99.90
23719;DHT22;43322;52.230;5.702;2023-12-14T15:09:59;5.70;99.90
23719;DHT22;43322;52.230;5.702;2023-12-14T15:12:26;5.60;99.90
23719;DHT22;43322;52.230;5.702;2023-12-14T15:14:53;5.60;99.90
23719;DHT22;43322;52.230;5.702;2023-12-14T15:17:21;6.30;99.90
23719;DHT22;43322;52.230;5.702;2023-12-14T15:19:48;5.60;99.90
23719;DHT22;43322;52.230;5.702;2023-12-14T15:22:16;5.90;99.90
23719;DHT22;43322;52.230;5.702;2023-12-14T15:24:43;6.10;99.90
23719;DHT22;43322;52.230;5.702;2023-12-14T15:27:10;5.60;99.90
23719;DHT22;43322;52.230;5.702;2023-12-14T15:29:37;5.60;99.90
23719;DHT22;43322;52.230;5.702;2023-12-14T15:32:04;5.50;99.90
23719;DHT22;43322;52.230;5.702;2023-12-14T15:34:31;5.20;99.90
23719;DHT22;43322;52.230;5.702;2023-12-14T15:36:58;6.00;99.90
23719;DHT22;43322;52.230;5.702;2023-12-14T15:39:26;6.40;99.90
23719;DHT22;43322;52.230;5.702;2023-12-14T15:41:53;5.90;99.90
23719;DHT22;43322;52.230;5.702;2023-12-14T15:44:19;5.40;99.90
23719;DHT22;43322;52.230;5.702;2023-12-14T15:46:47;5.30;99.90
23719;DHT22;43322;52.230;5.702;2023-12-14T15:49:13;5.40;99.90
23719;DHT22;43322;52.230;5.702;2023-12-14T15:51:41;5.70;99.90
23719;DHT22;43322;52.230;5.702;2023-12-14T15:54:07;5.80;99.90
23719;DHT22;43322;52.230;5.702;2023-12-14T15:56:36;6.00;99.90
23719;DHT22;43322;52.230;5.702;2023-12-14T15:59:02;5.30;99.90
23719;DHT22;43322;52.230;5.702;2023-12-14T16:01:32;6.00;99.90
23719;DHT22;43322;52.230;5.702;2023-12-14T16:04:02;5.40;99.90
23719;DHT22;43322;52.230;5.702;2023-12-14T16:06:29;5.40;99.90
23719;DHT22;43322;52.230;5.702;2023-12-14T16:08:55;5.40;99.90
23719;DHT22;43322;52.230;5.702;2023-12-14T16:11:22;5.40;99.90
23719;DHT22;43322;52.230;5.702;2023-12-14T16:13:51;5.50;99.90
23719;DHT22;43322;52.230;5.702;2023-12-14T16:16:18;5.40;99.90
23719;DHT22;43322;52.230;5.702;2023-12-14T16:18:45;5.50;99.90
23719;DHT22;43322;52.230;5.702;2023-12-14T16:21:12;6.10;99.90
23719;DHT22;43322;52.230;5.702;2023-12-14T16:23:39;5.60;99.90
23719;DHT22;43322;52.230;5.702;2023-12-14T16:26:06;5.50;99.90
23719;DHT22;43322;52.230;5.702;2023-12-14T16:28:34;5.40;99.90
23719;DHT22;43322;52.230;5.702;2023-12-14T16:31:04;5.40;99.90
23719;DHT22;43322;52.230;5.702;2023-12-14T16:33:32;5.50;99.90
23719;DHT22;43322;52.230;5.702;2023-12-14T16:35:58;5.50;99.90
23719;DHT22;43322;52.230;5.702;2023-12-14T16:38:25;5.60;99.90
23719;DHT22;43322;52.230;5.702;2023-12-14T16:40:52;5.60;99.90
23719;DHT22;43322;52.230;5.702;2023-12-14T16:43:19;5.80;99.90
23719;DHT22;43322;52.230;5.702;2023-12-14T16:45:47;5.50;99.90
23719;DHT22;43322;52.230;5.702;2023-12-14T16:48:18;5.50;99.90
23719;DHT22;43322;52.230;5.702;2023-12-14T16:50:45;5.50;99.90
23719;DHT22;43322;52.230;5.702;2023-12-14T16:53:11;5.50;99.90
23719;DHT22;43322;52.230;5.702;2023-12-14T16:55:38;5.70;99.90
23719;DHT22;43322;52.230;5.702;2023-12-14T16:58:05;5.50;99.90
23719;DHT22;43322;52.230;5.702;2023-12-14T17:00:32;5.90;99.90
23719;DHT22;43322;52.230;5.702;2023-12-14T17:02:59;5.70;99.90
23719;DHT22;43322;52.230;5.702;2023-12-14T17:05:27;5.60;99.90